Sunday, September 22, 2019, 12:28 PM EDT
Back to Local

KFIT, Fitchburg, Fitchburg Municipal Airport

Location: Leominster, MA, United States Lat: 42.552
Local Time: 12:28 PM EDT (16:28 GMT) Lon: -71.756
Time Zone: US/Eastern Elev: 347 ft

Show me the last for .
Show Decoded

2019-09-22 11:52 METAR KFIT 221552Z AUTO 25007KT 10SM CLR 28/12 A3011 RMK AO2 SLP196 T02830117 =
2019-09-22 10:52 METAR KFIT 221452Z AUTO 22006KT 10SM CLR 27/12 A3013 RMK AO2 SLP203 T02670117
                 58008 =
2019-09-22 09:52 METAR KFIT 221352Z AUTO 14003KT 10SM CLR 23/14 A3015 RMK AO2 SLP208 T02330139 =
2019-09-22 08:52 METAR KFIT 221252Z AUTO 16003KT 10SM CLR 19/14 A3015 RMK AO2 SLP211 T01890139 =
2019-09-22 07:52 METAR KFIT 221152Z AUTO VRB03KT 10SM CLR 18/13 A3016 RMK AO2 SLP211 T01780133
                 10178 20106 58002 =
2019-09-22 06:52 METAR KFIT 221052Z AUTO 00000KT 10SM CLR 13/12 A3016 RMK AO2 SLP214 T01330117 =
2019-09-22 06:32 METAR KFIT 221032Z AUTO 34003KT 3SM BR CLR 11/10 A3016 RMK AO2 T01110100 =
2019-09-22 06:26 METAR KFIT 221026Z AUTO 00000KT 1 1/4SM BR CLR 11/11 A3016 RMK AO2 VIS 1/2V5
                 T01110106 =
2019-09-22 06:09 METAR KFIT 221009Z AUTO 00000KT 3/4SM BR CLR 11/11 A3016 RMK AO2 T01110106 =
2019-09-22 06:06 METAR KFIT 221006Z AUTO 00000KT 1 3/4SM BR CLR 12/11 A3016 RMK AO2 VIS 3/4V5
                 T01170106 =
2019-09-22 06:01 METAR KFIT 221001Z AUTO 00000KT 4SM BR CLR 12/11 A3016 RMK AO2 T01220111 =
2019-09-22 05:52 METAR KFIT 220952Z AUTO 00000KT 1 1/4SM BR CLR 12/11 A3016 RMK AO2 SLP211
                 T01220111 =
2019-09-22 05:45 METAR KFIT 220945Z AUTO 00000KT 1 1/2SM BR CLR 11/10 A3016 RMK AO2 VIS 1/2V5
                 T01110100 =
2019-09-22 04:52 METAR KFIT 220852Z AUTO 00000KT 10SM CLR 13/12 A3016 RMK AO2 SLP212 T01280117
                 56005 =
2019-09-22 04:39 METAR KFIT 220839Z AUTO 00000KT 10SM CLR 13/12 A3016 RMK AO2 T01280117 =
2019-09-22 04:29 METAR KFIT 220829Z AUTO 00000KT 2SM BR CLR 12/11 A3016 RMK AO2 T01170106 =
2019-09-22 03:54 METAR KFIT 220754Z AUTO 00000KT 3SM BR SCT002 13/12 A3016 RMK AO2 T01280122 =
2019-09-22 03:52 METAR KFIT 220752Z AUTO 00000KT 3/4SM BR VV002 13/12 A3016 RMK AO2 SLP213
                 T01330122 =
2019-09-22 03:42 METAR KFIT 220742Z AUTO 00000KT 3/4SM BR VV002 13/12 A3017 RMK AO2 T01280117 =
2019-09-22 03:40 METAR KFIT 220740Z AUTO 00000KT 2SM BR SCT002 13/12 A3017 RMK AO2 T01280117 =
2019-09-22 03:05 METAR KFIT 220705Z AUTO 00000KT 3SM BR CLR 14/13 A3016 RMK AO2 T01390128 =
2019-09-22 02:57 METAR KFIT 220657Z AUTO 00000KT 1 1/4SM BR CLR 14/13 A3016 RMK AO2 T01440128 =
2019-09-22 02:52 METAR KFIT 220652Z AUTO 00000KT 3/4SM BR CLR 14/13 A3016 RMK AO2 SLP213
                 T01390128 =
2019-09-22 02:50 METAR KFIT 220650Z AUTO 00000KT 3/4SM BR CLR 14/13 A3016 RMK AO2 =
2019-09-22 02:47 METAR KFIT 220647Z AUTO 00000KT 1 1/2SM BR CLR 14/13 A3016 RMK AO2 =
2019-09-22 01:52 METAR KFIT 220552Z AUTO 00000KT 8SM CLR 15/13 A3018 RMK AO2 SLP218 T01500133
                 10222 20144 51000 =
2019-09-22 00:52 METAR KFIT 220452Z AUTO 00000KT 9SM CLR 16/14 A3018 RMK AO2 SLP218 T01560139
                 402940122 =
2019-09-21 23:52 METAR KFIT 220352Z AUTO 00000KT 10SM CLR 16/14 A3018 RMK AO2 SLP219 T01560144 =
2019-09-21 22:52 METAR KFIT 220252Z AUTO 00000KT 10SM CLR 18/15 A3018 RMK AO2 SLP218 T01780150
                 51008 =
2019-09-21 21:52 METAR KFIT 220152Z AUTO 00000KT 10SM CLR 19/15 A3017 RMK AO2 SLP216 T01890150 =
2019-09-21 20:52 METAR KFIT 220052Z AUTO 00000KT 10SM CLR 19/16 A3016 RMK AO2 SLP214 T01940156 =
2019-09-21 19:52 METAR KFIT 212352Z AUTO 34003KT 10SM CLR 21/16 A3015 RMK AO2 SLP210 T02060156
                 10294 20206 51003 =
2019-09-21 18:52 METAR KFIT 212252Z AUTO 22004KT 10SM CLR 25/16 A3015 RMK AO2 SLP208 T02500156 =
2019-09-21 17:52 METAR KFIT 212152Z AUTO 21006KT 10SM CLR 28/15 A3015 RMK AO2 SLP208 T02780150 =
2019-09-21 16:52 METAR KFIT 212052Z AUTO 18008KT 10SM SCT060 29/15 A3014 RMK AO2 SLP205 T02890150
                 56007 =
2019-09-21 15:52 METAR KFIT 211952Z AUTO VRB03KT 10SM SCT060 29/15 A3014 RMK AO2 SLP206 T02890150
                 =
2019-09-21 14:52 METAR KFIT 211852Z AUTO 29005KT 10SM CLR 29/14 A3015 RMK AO2 SLP208 T02940144 =
2019-09-21 13:52 METAR KFIT 211752Z AUTO 12005KT 10SM CLR 28/14 A3016 RMK AO2 SLP212 T02830144
                 10289 20156 58020 =
2019-09-21 12:52 METAR KFIT 211652Z AUTO VRB04KT 10SM CLR 29/15 A3018 RMK AO2 SLP219 T02890150 =

Support USWX by starting your Amazon purchase here.